Time;durP1;ratioP1;P1;durP2;ratioP2;P2;SDS_P1;SDS_P2;PMS_P1;PMS_P2;Temp;Humidity;BMP_temperature;BMP_pressure;BME280_temperature;BME280_humidity;BME280_pressure;Samples;Min_cycle;Max_cycle;Signal;HPM_P1;HPM_P2
2021/12/16 00:07:01;;;;;;;6.07;2.33;;;;;;;-149.78;100.00;50553.59;5133975;27;20021;-70
2021/12/16 00:09:32;;;;;;;11.15;2.53;;;;;;;-149.78;100.00;50530.13;5125817;27;20047;-71
2021/12/16 00:31:44;;;;;;;6.00;1.98;;;;;;;-149.78;100.00;50522.28;5128912;27;20416;-70
2021/12/16 00:34:10;;;;;;;8.18;2.20;;;;;;;-149.78;100.00;50530.13;5098635;27;20038;-70
2021/12/16 00:36:38;;;;;;;11.13;2.28;;;;;;;-149.78;100.00;50569.22;5123403;27;20395;-70
2021/12/16 00:39:13;;;;;;;6.40;1.98;;;;;;;-149.78;100.00;50518.38;5132524;27;20053;-70
2021/12/16 00:41:42;;;;;;;4.13;2.00;;;;;;;-149.78;100.00;50532.06;5130863;27;20114;-70
2021/12/16 00:44:21;;;;;;;7.32;2.72;;;;;;;-149.78;100.00;50575.09;5101475;28;20114;-70
2021/12/16 00:49:36;;;;;;;4.28;2.00;;;;;;;-149.78;100.00;50496.88;5112496;27;20027;-71
2021/12/16 00:54:57;;;;;;;7.15;2.00;;;;;;;-149.78;100.00;50535.97;5130717;27;20032;-71
2021/12/16 00:57:23;;;;;;;4.20;1.83;;;;;;;-149.78;100.00;50553.59;5127769;27;20108;-71
2021/12/16 00:59:51;;;;;;;6.40;2.17;;;;;;;-149.78;100.00;50573.16;5121965;27;20424;-70
2021/12/16 01:49:07;;;;;;;8.32;2.03;;;;;;;-149.78;100.00;50580.97;5127427;27;20067;-70
2021/12/16 01:51:31;;;;;;;5.40;1.70;;;;;;;-149.78;100.00;50551.63;5129840;27;20118;-71
2021/12/16 01:59:34;;;;;;;4.50;1.90;;;;;;;-149.78;100.00;50577.06;5125338;27;20023;-71
2021/12/16 02:02:12;;;;;;;4.82;1.73;;;;;;;-149.78;100.00;50573.16;5125238;27;20107;-70
2021/12/16 02:05:03;;;;;;;8.15;1.80;;;;;;;-149.78;100.00;50545.75;5136659;27;20738;-70
2021/12/16 02:07:51;;;;;;;6.53;1.77;;;;;;;-149.78;100.00;50537.94;5133505;27;20027;-71
2021/12/16 02:10:17;;;;;;;4.40;1.80;;;;;;;-149.78;100.00;50537.94;5130932;27;20588;-71
2021/12/16 02:12:56;;;;;;;7.43;2.00;;;;;;;-149.78;100.00;50547.72;5133974;27;20019;-71
2021/12/16 02:37:16;;;;;;;7.32;1.73;;;;;;;-149.78;100.00;50541.84;5114590;27;20039;-70
2021/12/16 02:39:43;;;;;;;3.65;1.67;;;;;;;-149.78;100.00;50522.28;5102373;27;20035;-70
2021/12/16 02:42:17;;;;;;;2.45;1.60;;;;;;;-149.78;100.00;50534.03;5118253;27;20054;-70
2021/12/16 02:50:00;;;;;;;7.20;1.80;;;;;;;-149.78;100.00;50502.75;5136277;27;20031;-70
2021/12/16 02:52:27;;;;;;;3.58;1.95;;;;;;;-149.78;100.00;50534.03;5117975;27;20130;-71
2021/12/16 02:54:53;;;;;;;8.52;2.10;;;;;;;-149.78;100.00;50530.13;5117794;27;20099;-70
2021/12/16 02:57:20;;;;;;;9.10;2.38;;;;;;;-149.78;100.00;50526.22;5117929;27;20031;-70
2021/12/16 02:59:47;;;;;;;3.97;2.00;;;;;;;-149.78;100.00;50573.16;5100939;27;20080;-70
2021/12/16 03:02:17;;;;;;;8.63;2.20;;;;;;;-149.78;100.00;50510.56;5135932;27;20037;-70
2021/12/16 03:04:46;;;;;;;7.07;2.70;;;;;;;-149.78;100.00;50530.13;5117803;27;20125;-70
2021/12/16 03:07:14;;;;;;;7.90;3.53;;;;;;;-149.78;100.00;50565.31;5135775;27;20031;-70
2021/12/16 03:13:09;;;;;;;6.05;2.50;;;;;;;-149.78;100.00;50541.84;5103965;27;20050;-71
2021/12/16 03:20:41;;;;;;;6.28;2.13;;;;;;;-149.78;100.00;50534.03;5135774;27;20061;-70
2021/12/16 03:25:59;;;;;;;12.10;3.03;;;;;;;-149.78;100.00;50565.31;5135723;27;20027;-71
2021/12/16 03:34:07;;;;;;;9.45;2.40;;;;;;;-149.78;100.00;50549.69;5135367;27;20030;-71
2021/12/16 03:37:22;;;;;;;5.72;2.58;;;;;;;-149.78;100.00;50547.72;5134216;27;20481;-71
2021/12/16 03:39:21;;;;;;;7.55;2.50;;;;;;;-149.78;100.00;50594.66;5123192;27;20035;-71
2021/12/16 03:41:47;;;;;;;11.50;2.67;;;;;;;-149.78;100.00;50537.94;5134163;27;20114;-71
2021/12/16 03:44:15;;;;;;;5.40;2.35;;;;;;;-149.78;100.00;50539.91;5133243;27;20363;-71
2021/12/16 03:46:47;;;;;;;9.77;3.05;;;;;;;-149.78;100.00;50557.50;5135061;27;20126;-71
2021/12/16 03:49:18;;;;;;;8.95;2.22;;;;;;;-149.78;100.00;50557.50;5135050;27;20111;-71
2021/12/16 03:51:50;;;;;;;7.43;2.30;;;;;;;-149.78;100.00;50545.75;5133911;27;20039;-71
2021/12/16 03:54:19;;;;;;;7.97;2.28;;;;;;;-149.78;100.00;50549.69;5102989;27;20055;-71
2021/12/16 03:56:47;;;;;;;5.47;2.15;;;;;;;-149.78;100.00;50600.53;5130742;27;20083;-71
2021/12/16 03:59:16;;;;;;;8.70;2.00;;;;;;;-149.78;100.00;50557.50;5134887;27;20049;-71
2021/12/16 04:01:45;;;;;;;7.20;2.30;;;;;;;-149.78;100.00;50545.75;5116486;27;20066;-70
2021/12/16 04:04:10;;;;;;;8.48;2.88;;;;;;;-149.78;100.00;50569.22;5116584;27;20096;-71
2021/12/16 04:06:39;;;;;;;5.53;2.15;;;;;;;-149.78;100.00;50534.03;5134760;27;20114;-70
2021/12/16 04:09:07;;;;;;;7.63;2.00;;;;;;;-149.78;100.00;50537.94;5134916;27;20386;-71
2021/12/16 04:11:40;;;;;;;6.70;2.30;;;;;;;-149.78;100.00;50584.88;5134820;27;20443;-71
2021/12/16 04:14:14;;;;;;;7.22;2.13;;;;;;;-149.78;100.00;50543.81;5134774;27;20031;-71
2021/12/16 04:16:45;;;;;;;17.42;4.43;;;;;;;-149.78;100.00;50586.84;5117137;27;20053;-71
2021/12/16 04:19:18;;;;;;;10.95;2.50;;;;;;;-149.78;100.00;50553.59;5116638;27;20110;-71
2021/12/16 04:21:53;;;;;;;6.70;2.13;;;;;;;-149.78;100.00;50573.16;5134650;27;20436;-71
2021/12/16 04:24:21;;;;;;;6.95;2.17;;;;;;;-149.78;100.00;50539.91;5134763;27;20027;-71
2021/12/16 04:26:49;;;;;;;5.47;2.50;;;;;;;-149.78;100.00;50584.88;5134511;27;20027;-71
2021/12/16 04:29:17;;;;;;;5.85;2.35;;;;;;;-149.78;100.00;50549.69;5116049;28;20066;-71
2021/12/16 04:31:44;;;;;;;5.55;2.30;;;;;;;-149.78;100.00;50555.53;5116121;27;20122;-71
2021/12/16 04:34:09;;;;;;;5.68;2.45;;;;;;;-149.78;100.00;50612.25;5134423;27;20031;-70
2021/12/16 04:36:35;;;;;;;6.50;2.47;;;;;;;-149.78;100.00;50555.53;5115644;27;20466;-70
2021/12/16 04:39:05;;;;;;;8.05;2.47;;;;;;;-149.78;100.00;50608.34;5098954;27;20031;-70
2021/12/16 04:41:32;;;;;;;6.75;2.50;;;;;;;-149.78;100.00;50573.16;5119323;27;20458;-71
2021/12/16 04:43:58;;;;;;;9.23;2.55;;;;;;;-149.78;100.00;50580.97;5126343;27;20027;-71
2021/12/16 04:46:27;;;;;;;8.90;2.70;;;;;;;-149.78;100.00;50555.53;5115786;28;20444;-70
2021/12/16 04:48:57;;;;;;;5.68;2.65;;;;;;;-149.78;100.00;50620.09;5134344;27;20527;-71
2021/12/16 04:51:26;;;;;;;8.20;2.72;;;;;;;-149.78;100.00;50565.31;5134168;27;20031;-71
2021/12/16 04:53:52;;;;;;;8.00;2.33;;;;;;;-149.78;100.00;50545.75;5134079;27;20023;-70
2021/12/16 04:56:18;;;;;;;6.32;2.88;;;;;;;-149.78;100.00;50588.78;5135173;27;20027;-71
2021/12/16 04:58:47;;;;;;;6.95;2.20;;;;;;;-149.78;100.00;50588.78;5138399;27;20030;-71
2021/12/16 05:01:13;;;;;;;7.45;2.63;;;;;;;-149.78;100.00;50592.72;5138438;27;20114;-71
2021/12/16 05:03:39;;;;;;;7.35;2.47;;;;;;;-149.78;100.00;50592.72;5138460;27;20172;-71
2021/12/16 05:06:06;;;;;;;10.63;2.38;;;;;;;-149.78;100.00;50561.41;5138277;27;20114;-71
2021/12/16 05:08:33;;;;;;;11.02;2.88;;;;;;;-149.78;100.00;50588.78;5138363;27;20031;-71
2021/12/16 05:11:02;;;;;;;5.25;2.00;;;;;;;-149.78;100.00;50569.22;5119604;27;20038;-71
2021/12/16 05:13:29;;;;;;;10.73;2.58;;;;;;;-149.78;100.00;50575.09;5138237;27;20031;-71
2021/12/16 05:15:57;;;;;;;7.80;3.17;;;;;;;-149.78;100.00;50614.22;5119714;27;20035;-71
2021/12/16 05:18:31;;;;;;;8.13;2.45;;;;;;;-149.78;100.00;50588.78;5118408;27;20031;-71
2021/12/16 05:20:59;;;;;;;6.10;2.33;;;;;;;-149.78;100.00;50584.88;5116292;27;20506;-71
2021/12/16 05:28:37;;;;;;;4.72;2.30;;;;;;;-149.78;100.00;50573.16;5108046;27;20039;-70
2021/12/16 05:31:03;;;;;;;7.38;2.08;;;;;;;-149.78;100.00;50584.88;5109159;28;20031;-71
2021/12/16 05:33:30;;;;;;;8.93;2.75;;;;;;;-149.78;100.00;50588.78;5135544;27;20039;-70
2021/12/16 05:35:57;;;;;;;12.85;2.60;;;;;;;-149.78;100.00;50600.53;5120415;27;20035;-71
2021/12/16 05:38:25;;;;;;;12.77;2.75;;;;;;;-149.78;100.00;50592.72;5120479;27;20038;-71
2021/12/16 05:40:52;;;;;;;7.07;2.40;;;;;;;-149.78;100.00;50592.72;5109079;27;20157;-70
2021/12/16 05:43:22;;;;;;;8.82;2.72;;;;;;;-149.78;100.00;50596.63;5132043;27;20467;-70
2021/12/16 05:45:49;;;;;;;8.40;2.67;;;;;;;-149.78;100.00;50582.94;5131414;27;20042;-70
2021/12/16 05:48:18;;;;;;;5.75;3.03;;;;;;;-149.78;100.00;50596.63;5109145;27;20039;-70
2021/12/16 05:50:48;;;;;;;9.65;2.97;;;;;;;-149.78;100.00;50600.53;5132693;27;20110;-71
2021/12/16 05:53:14;;;;;;;9.02;3.05;;;;;;;-149.78;100.00;50557.50;5127005;27;20040;-70
2021/12/16 05:55:40;;;;;;;8.55;2.85;;;;;;;-149.78;100.00;50586.84;5132283;27;20023;-70
2021/12/16 05:58:08;;;;;;;7.70;3.08;;;;;;;-149.78;100.00;50622.03;5130895;27;20020;-71
2021/12/16 06:00:40;;;;;;;11.45;3.58;;;;;;;-149.78;100.00;50580.97;5105186;28;20027;-72
2021/12/16 06:03:06;;;;;;;7.80;3.30;;;;;;;-149.78;100.00;50577.06;5115414;28;20180;-69
2021/12/16 06:05:32;;;;;;;9.20;3.45;;;;;;;-149.78;100.00;50565.31;5103352;27;20034;-68
2021/12/16 06:07:58;;;;;;;11.50;3.10;;;;;;;-149.78;100.00;50606.41;5135567;27;20035;-70
2021/12/16 06:11:15;;;;;;;11.15;3.03;;;;;;;-149.78;100.00;50569.22;5123479;27;20036;-70
2021/12/16 06:13:12;;;;;;;5.68;2.72;;;;;;;-149.78;100.00;50592.72;5129552;27;20047;-70
2021/12/16 06:29:33;;;;;;;13.57;3.83;;;;;;;-149.78;100.00;50592.72;5136434;27;20058;-70
2021/12/16 06:31:59;;;;;;;15.43;5.13;;;;;;;-149.78;100.00;50577.06;5136694;27;20075;-70
2021/12/16 06:34:25;;;;;;;20.98;6.20;;;;;;;-149.78;100.00;50577.06;5118279;27;20063;-70
2021/12/16 06:36:50;;;;;;;16.20;6.18;;;;;;;-149.78;100.00;50543.81;5136434;27;20023;-70
2021/12/16 06:39:16;;;;;;;16.77;5.97;;;;;;;-149.78;100.00;50557.50;5136366;27;20031;-70
2021/12/16 06:41:42;;;;;;;17.98;5.57;;;;;;;-149.78;100.00;50612.25;5136480;27;20034;-70
2021/12/16 06:44:18;;;;;;;16.85;5.78;;;;;;;-149.78;100.00;50612.25;5117986;27;20435;-70
2021/12/16 06:46:46;;;;;;;18.50;5.28;;;;;;;-149.78;100.00;50580.97;5136198;27;20118;-70
2021/12/16 06:49:14;;;;;;;14.88;5.85;;;;;;;-149.78;100.00;50573.16;5136241;27;20061;-70
2021/12/16 06:52:04;;;;;;;16.60;6.18;;;;;;;-149.78;100.00;50557.50;5136187;27;20058;-70
2021/12/16 06:54:37;;;;;;;18.13;6.60;;;;;;;-149.78;100.00;50565.31;5135747;27;20043;-70
2021/12/16 06:59:38;;;;;;;16.95;5.55;;;;;;;-149.78;100.00;50573.16;5117894;27;20051;-70
2021/12/16 07:02:11;;;;;;;12.75;5.38;;;;;;;-149.78;100.00;50561.41;5134037;27;20110;-70
2021/12/16 07:04:38;;;;;;;13.73;5.40;;;;;;;-149.78;100.00;50592.72;5101859;27;20035;-70
2021/12/16 07:07:06;;;;;;;15.70;6.40;;;;;;;-149.78;100.00;50577.06;5114495;27;20031;-70
2021/12/16 07:09:32;;;;;;;17.00;6.35;;;;;;;-149.78;100.00;50547.72;5123052;27;20450;-70
2021/12/16 07:11:59;;;;;;;11.57;5.50;;;;;;;-149.78;100.00;50588.78;5102258;28;20032;-70
2021/12/16 07:14:35;;;;;;;14.30;6.10;;;;;;;-149.78;100.00;50600.53;5119014;27;20418;-69
2021/12/16 07:17:05;;;;;;;21.40;6.60;;;;;;;-149.78;100.00;50561.41;5109100;27;20028;-68
2021/12/16 07:19:31;;;;;;;18.20;6.97;;;;;;;-149.78;100.00;50592.72;5109510;28;20031;-70
2021/12/16 07:21:57;;;;;;;19.90;6.68;;;;;;;-149.78;100.00;50588.78;5120945;27;20455;-70
2021/12/16 07:24:23;;;;;;;16.45;6.25;;;;;;;-149.78;100.00;50569.22;5100378;28;20039;-70
2021/12/16 07:26:49;;;;;;;21.23;7.00;;;;;;;-149.78;100.00;50588.78;5103350;27;20040;-70
2021/12/16 07:29:15;;;;;;;17.38;6.32;;;;;;;-149.78;100.00;50596.63;5099864;27;20051;-71
2021/12/16 07:31:41;;;;;;;18.85;6.40;;;;;;;-149.78;100.00;50604.44;5114940;27;20024;-73
2021/12/16 07:34:10;;;;;;;15.48;5.95;;;;;;;-149.78;100.00;50631.81;5126409;27;20034;-70
2021/12/16 07:36:38;;;;;;;17.35;6.43;;;;;;;-149.78;100.00;50616.19;5112903;27;20023;-72
2021/12/16 07:39:07;;;;;;;29.20;7.55;;;;;;;-149.78;100.00;50606.41;5107165;27;20052;-71
2021/12/16 07:41:34;;;;;;;24.35;8.38;;;;;;;-149.78;100.00;50596.63;5131784;27;20470;-72
2021/12/16 07:44:12;;;;;;;24.17;7.60;;;;;;;-149.78;100.00;50592.72;5116891;27;20031;-74
2021/12/16 07:46:50;;;;;;;21.17;8.02;;;;;;;-149.78;100.00;50565.31;5099636;27;20035;-74
2021/12/16 07:49:28;;;;;;;23.42;7.82;;;;;;;-149.78;100.00;50596.63;5107607;27;20122;-73
2021/12/16 07:51:55;;;;;;;25.20;7.00;;;;;;;-149.78;100.00;50588.78;5123906;27;20088;-72
2021/12/16 07:54:22;;;;;;;19.05;7.20;;;;;;;-149.78;100.00;50600.53;5135105;27;20064;-72
2021/12/16 07:56:50;;;;;;;22.58;8.63;;;;;;;-149.78;100.00;50555.53;5117007;27;20084;-78
2021/12/16 07:59:15;;;;;;;27.13;8.60;;;;;;;-149.78;100.00;50561.41;5135065;27;20450;-72
2021/12/16 08:01:43;;;;;;;30.50;10.00;;;;;;;-149.78;100.00;50592.72;5135177;27;20039;-72
2021/12/16 08:04:18;;;;;;;25.88;10.50;;;;;;;-149.78;100.00;50577.06;5126058;27;20084;-73
2021/12/16 08:06:45;;;;;;;21.15;8.52;;;;;;;-149.78;100.00;50575.09;5103276;27;20092;-75
2021/12/16 08:09:10;;;;;;;23.25;8.65;;;;;;;-149.78;100.00;50588.78;5132709;27;20035;-69
2021/12/16 08:11:40;;;;;;;29.95;8.30;;;;;;;-149.78;100.00;50534.03;5116434;27;20040;-71
2021/12/16 08:14:06;;;;;;;23.35;9.07;;;;;;;-149.78;100.00;50573.16;5112852;27;20047;-72
2021/12/16 08:16:32;;;;;;;23.80;8.60;;;;;;;-149.78;100.00;50561.41;5128832;27;20027;-73
2021/12/16 08:18:58;;;;;;;22.88;7.75;;;;;;;-149.78;100.00;50616.19;5105896;27;20031;-72
2021/12/16 08:21:28;;;;;;;23.50;8.63;;;;;;;-149.78;100.00;50573.16;5122011;27;20038;-72
2021/12/16 08:23:57;;;;;;;20.00;8.15;;;;;;;-149.78;100.00;50610.31;5107403;27;20106;-72
2021/12/16 08:26:22;;;;;;;22.08;9.15;;;;;;;-149.78;100.00;50555.53;5112564;28;20524;-73
2021/12/16 08:28:48;;;;;;;21.30;7.22;;;;;;;-149.78;100.00;50565.31;5123218;27;20478;-70
2021/12/16 08:31:15;;;;;;;18.92;7.53;;;;;;;-149.78;100.00;50575.09;5105191;28;20050;-74
2021/12/16 08:33:40;;;;;;;20.75;8.98;;;;;;;-149.78;100.00;50553.59;5123374;27;20027;-73
2021/12/16 08:36:08;;;;;;;16.70;7.40;;;;;;;-149.78;100.00;50586.84;5134193;27;20051;-72
2021/12/16 08:38:36;;;;;;;21.20;8.02;;;;;;;-149.78;100.00;50629.88;5112075;28;20027;-73
2021/12/16 08:41:08;;;;;;;24.77;7.55;;;;;;;-149.78;100.00;50565.31;5132049;27;20035;-72
2021/12/16 08:43:36;;;;;;;19.25;8.15;;;;;;;-149.78;100.00;50582.94;5115819;27;20038;-72
2021/12/16 08:46:02;;;;;;;15.98;6.82;;;;;;;-149.78;100.00;50598.56;5134211;28;20031;-72
2021/12/16 08:48:28;;;;;;;15.40;6.97;;;;;;;-149.78;100.00;50579.00;5115860;27;20031;-72
2021/12/16 08:50:54;;;;;;;19.27;8.32;;;;;;;-149.78;100.00;50582.94;5129989;28;20031;-72
2021/12/16 08:53:22;;;;;;;19.25;7.60;;;;;;;-149.78;100.00;50545.75;5110787;28;20031;-72
2021/12/16 08:55:51;;;;;;;24.88;9.20;;;;;;;-149.78;100.00;50573.16;5130866;28;20381;-72
2021/12/16 08:58:17;;;;;;;23.75;8.73;;;;;;;-149.78;100.00;50608.34;5115367;28;20031;-72
2021/12/16 09:00:48;;;;;;;24.42;8.50;;;;;;;-149.78;100.00;50580.97;5114021;28;20027;-72
2021/12/16 09:03:14;;;;;;;19.87;9.23;;;;;;;-149.78;100.00;50577.06;5131251;28;20032;-72
2021/12/16 09:05:40;;;;;;;20.95;9.18;;;;;;;-149.78;100.00;50563.38;5115034;28;20039;-71
2021/12/16 09:08:06;;;;;;;27.38;10.38;;;;;;;-149.78;100.00;50588.78;5115652;28;20027;-72
2021/12/16 09:10:34;;;;;;;28.50;11.13;;;;;;;-149.78;100.00;50573.16;5133126;27;20031;-72
2021/12/16 09:13:03;;;;;;;30.48;11.13;;;;;;;-149.78;100.00;50571.19;5134216;27;20031;-72
2021/12/16 09:15:33;;;;;;;28.25;11.52;;;;;;;-149.78;100.00;50553.59;5134035;28;20042;-72
2021/12/16 09:18:00;;;;;;;28.35;10.95;;;;;;;-149.78;100.00;50555.53;5133977;28;20019;-72
2021/12/16 09:20:26;;;;;;;26.55;10.63;;;;;;;-149.78;100.00;50557.50;5134266;27;20038;-72
2021/12/16 09:22:52;;;;;;;26.42;9.85;;;;;;;-149.78;100.00;50608.34;5126393;28;20027;-72
2021/12/16 09:25:18;;;;;;;22.67;8.48;;;;;;;-149.78;100.00;50580.97;5114838;28;20027;-72
2021/12/16 09:27:44;;;;;;;23.05;9.18;;;;;;;-149.78;100.00;50580.97;5081529;28;20517;-73
2021/12/16 09:30:14;;;;;;;16.52;8.10;;;;;;;-149.78;100.00;50616.19;5132460;28;20038;-73
2021/12/16 09:32:40;;;;;;;24.45;8.52;;;;;;;-149.78;100.00;50600.53;5115561;28;20031;-72
2021/12/16 09:35:08;;;;;;;22.48;8.25;;;;;;;-149.78;100.00;50606.41;5098622;28;20058;-73
2021/12/16 09:37:35;;;;;;;23.30;8.15;;;;;;;-149.78;100.00;50577.06;5115339;28;20042;-72
2021/12/16 09:40:02;;;;;;;18.48;7.30;;;;;;;-149.78;100.00;50580.97;5116891;27;20023;-73
2021/12/16 09:42:29;;;;;;;16.88;6.68;;;;;;;-149.78;100.00;50571.19;5133722;27;20027;-73
2021/12/16 09:44:54;;;;;;;18.00;7.60;;;;;;;-149.78;100.00;50592.72;5122053;27;20418;-73
2021/12/16 09:47:26;;;;;;;15.82;6.97;;;;;;;-149.78;100.00;50573.16;5133835;27;20062;-70
2021/12/16 09:49:52;;;;;;;16.75;6.50;;;;;;;-149.78;100.00;50534.03;5120544;27;20031;-71
2021/12/16 09:52:18;;;;;;;19.75;6.70;;;;;;;-149.78;100.00;50555.53;5113537;27;20035;-72
2021/12/16 09:54:44;;;;;;;14.40;6.45;;;;;;;-149.78;100.00;50537.94;5137478;27;20118;-71
2021/12/16 09:57:11;;;;;;;16.40;6.13;;;;;;;-149.78;100.00;50543.81;5137062;27;20471;-71
2021/12/16 09:59:38;;;;;;;16.50;6.78;;;;;;;-149.78;100.00;50579.00;5101851;27;20066;-72
2021/12/16 10:02:09;;;;;;;17.77;6.70;;;;;;;-149.78;100.00;50547.72;5137221;27;20027;-71
2021/12/16 10:04:35;;;;;;;15.57;6.35;;;;;;;-149.78;100.00;50541.84;5137308;27;20486;-70
2021/12/16 10:07:07;;;;;;;16.23;6.35;;;;;;;-149.78;100.00;50553.59;5118659;27;20055;-71
2021/12/16 10:09:32;;;;;;;17.20;6.88;;;;;;;-149.78;100.00;50528.16;5137103;27;20116;-71
2021/12/16 10:12:10;;;;;;;21.63;6.90;;;;;;;-149.78;100.00;50537.94;5136977;27;20510;-71
2021/12/16 10:15:02;;;;;;;16.40;5.93;;;;;;;-149.78;100.00;50534.03;5137248;27;20450;-70
2021/12/16 10:17:34;;;;;;;17.27;6.45;;;;;;;-149.78;100.00;50492.97;5097761;27;20032;-70
2021/12/16 10:20:12;;;;;;;13.25;6.25;;;;;;;-149.78;100.00;50553.59;5118168;27;20351;-71
2021/12/16 10:22:42;;;;;;;21.63;6.80;;;;;;;-149.78;100.00;50532.06;5109347;27;20034;-71
2021/12/16 10:25:34;;;;;;;17.15;7.93;;;;;;;-149.78;100.00;50496.88;5136788;27;20034;-71
2021/12/16 10:28:23;;;;;;;17.08;7.10;;;;;;;-149.78;100.00;50541.84;5121799;27;20088;-71
2021/12/16 10:31:07;;;;;;;21.08;8.10;;;;;;;-149.78;100.00;50518.38;5118549;27;20110;-71
2021/12/16 10:33:43;;;;;;;15.82;7.05;;;;;;;-149.78;100.00;50534.03;5136609;27;20113;-71
2021/12/16 10:36:21;;;;;;;19.95;7.57;;;;;;;-149.78;100.00;50549.69;5118231;27;20110;-71
2021/12/16 10:38:55;;;;;;;21.45;8.93;;;;;;;-149.78;100.00;50537.94;5136450;27;20459;-71
2021/12/16 10:41:26;;;;;;;27.25;8.88;;;;;;;-149.78;100.00;50549.69;5088764;27;20073;-70
2021/12/16 10:44:15;;;;;;;28.58;9.20;;;;;;;-149.78;100.00;50528.16;5136466;27;20043;-70
2021/12/16 10:47:00;;;;;;;23.55;9.52;;;;;;;-149.78;100.00;50534.03;5117772;27;20031;-71
2021/12/16 10:49:49;;;;;;;24.13;9.38;;;;;;;-149.78;100.00;50518.38;5135946;27;20027;-71
2021/12/16 10:52:27;;;;;;;23.15;10.18;;;;;;;-149.78;100.00;50561.41;5132918;27;20470;-71
2021/12/16 10:54:54;;;;;;;18.65;8.43;;;;;;;-149.78;100.00;50518.38;5117124;27;20035;-71
2021/12/16 10:57:25;;;;;;;21.23;8.70;;;;;;;-149.78;100.00;50549.69;5117735;27;20035;-71
2021/12/16 11:00:06;;;;;;;26.02;9.35;;;;;;;-149.78;100.00;50528.16;5136188;27;20031;-70
2021/12/16 11:02:35;;;;;;;30.93;10.17;;;;;;;-149.78;100.00;50520.34;5116028;27;20571;-71
2021/12/16 11:05:11;;;;;;;21.88;9.32;;;;;;;-149.78;100.00;50526.22;5135739;27;20390;-70
2021/12/16 11:07:39;;;;;;;20.55;9.18;;;;;;;-149.78;100.00;50580.97;5135677;27;20114;-70
2021/12/16 11:10:18;;;;;;;24.88;9.75;;;;;;;-149.78;100.00;50549.69;5135916;27;20464;-71
2021/12/16 11:13:02;;;;;;;25.67;11.38;;;;;;;-149.78;100.00;50518.38;5121991;27;20023;-70
2021/12/16 11:15:40;;;;;;;28.77;10.80;;;;;;;-149.78;100.00;50535.97;5116734;27;20069;-71
2021/12/16 11:18:20;;;;;;;25.08;10.60;;;;;;;-149.78;100.00;50530.13;5124317;27;20137;-71
2021/12/16 11:21:04;;;;;;;30.98;11.93;;;;;;;-149.78;100.00;50522.28;5127406;27;20031;-71
2021/12/16 11:23:40;;;;;;;26.10;11.18;;;;;;;-149.78;100.00;50510.56;5098112;27;20463;-71
2021/12/16 11:26:18;;;;;;;31.75;12.02;;;;;;;-149.78;100.00;50541.84;5135506;27;20019;-71
2021/12/16 11:28:48;;;;;;;33.33;10.73;;;;;;;-149.78;100.00;50514.47;5135306;27;20035;-71
2021/12/16 11:31:30;;;;;;;24.77;9.95;;;;;;;-149.78;100.00;50487.09;5117235;27;20031;-72
2021/12/16 11:34:04;;;;;;;21.20;9.55;;;;;;;-149.78;100.00;50502.75;5102006;27;20110;-71
2021/12/16 11:36:40;;;;;;;31.48;11.50;;;;;;;-149.78;100.00;50522.28;5135545;27;20038;-72
2021/12/16 11:39:19;;;;;;;26.27;11.15;;;;;;;-149.78;100.00;50553.59;5099629;27;20039;-72
2021/12/16 11:41:50;;;;;;;34.65;12.05;;;;;;;-149.78;100.00;50500.78;5118454;27;20607;-71
2021/12/16 11:44:29;;;;;;;23.77;11.00;;;;;;;-149.78;100.00;50514.47;5135168;27;20046;-72
2021/12/16 11:47:03;;;;;;;26.52;11.00;;;;;;;-149.78;100.00;50557.50;5135070;27;20362;-71
2021/12/16 11:49:48;;;;;;;25.88;10.30;;;;;;;-149.78;100.00;50510.56;5134851;27;20031;-73
2021/12/16 11:52:18;;;;;;;29.17;9.77;;;;;;;-149.78;100.00;50522.28;5135003;27;20034;-72
2021/12/16 11:55:01;;;;;;;27.05;9.95;;;;;;;-149.78;100.00;50518.38;5135111;27;20031;-71
2021/12/16 11:57:44;;;;;;;27.48;9.85;;;;;;;-149.78;100.00;50494.91;5116555;27;20076;-71
2021/12/16 12:00:12;;;;;;;26.27;10.52;;;;;;;-149.78;100.00;50473.41;5134838;27;20035;-71
2021/12/16 12:02:43;;;;;;;24.33;9.43;;;;;;;-149.78;100.00;50522.28;5135030;27;20027;-71
2021/12/16 12:05:32;;;;;;;22.40;8.65;;;;;;;-149.78;100.00;50510.56;5134438;27;20110;-71
2021/12/16 12:08:02;;;;;;;18.77;7.40;;;;;;;-149.78;100.00;50518.38;5084319;27;20113;-70
2021/12/16 12:10:43;;;;;;;15.90;7.70;;;;;;;-149.78;100.00;50487.09;5131081;27;20088;-70
2021/12/16 12:13:21;;;;;;;18.73;6.45;;;;;;;-149.78;100.00;50498.81;5100222;27;20024;-71
2021/12/16 12:16:06;;;;;;;18.52;7.65;;;;;;;-149.78;100.00;50510.56;5116611;27;20027;-71
2021/12/16 12:18:43;;;;;;;12.13;6.00;;;;;;;-149.78;100.00;50530.13;5106126;27;20359;-70
2021/12/16 12:21:29;;;;;;;13.82;6.53;;;;;;;-149.78;100.00;50498.81;5115777;27;20064;-71
2021/12/16 12:24:32;;;;;;;13.05;5.80;;;;;;;-149.78;100.00;50502.75;5084027;27;20027;-71
2021/12/16 12:27:03;;;;;;;15.65;5.70;;;;;;;-149.78;100.00;50514.47;5097461;27;20043;-70
2021/12/16 12:29:33;;;;;;;11.68;5.53;;;;;;;-149.78;100.00;50502.75;5112719;27;20046;-70
2021/12/16 12:32:06;;;;;;;9.68;4.55;;;;;;;-149.78;100.00;50498.81;5133100;27;21140;-71
2021/12/16 12:34:34;;;;;;;18.55;8.05;;;;;;;-149.78;100.00;50510.56;5122574;27;20035;-71
2021/12/16 12:37:08;;;;;;;13.57;5.35;;;;;;;-149.78;100.00;50502.75;5108477;28;20026;-71
2021/12/16 12:39:39;;;;;;;10.38;5.13;;;;;;;-149.78;100.00;50510.56;5106751;27;20092;-71
2021/12/16 12:42:07;;;;;;;7.50;4.30;;;;;;;-149.78;100.00;50512.50;5133937;27;20050;-70
2021/12/16 12:44:33;;;;;;;9.68;3.72;;;;;;;-149.78;100.00;50457.75;5115982;27;20370;-71
2021/12/16 12:47:01;;;;;;;9.25;3.42;;;;;;;-149.78;100.00;50498.81;5112748;27;20087;-72
2021/12/16 12:49:29;;;;;;;7.15;3.50;;;;;;;-149.78;100.00;50473.41;5110958;28;20050;-72
2021/12/16 12:52:16;;;;;;;8.05;3.67;;;;;;;-149.78;100.00;50494.91;5108741;28;20165;-72
2021/12/16 12:54:45;;;;;;;8.45;3.63;;;;;;;-149.78;100.00;50502.75;5127123;28;20103;-70
2021/12/16 12:57:29;;;;;;;11.27;4.40;;;;;;;-149.78;100.00;50512.50;5128578;27;20520;-70
2021/12/16 12:59:58;;;;;;;7.50;3.88;;;;;;;-149.78;100.00;50479.28;5108544;28;20058;-71
2021/12/16 13:02:34;;;;;;;5.82;3.45;;;;;;;-149.78;100.00;50514.47;5122471;28;20030;-71
2021/12/16 13:05:10;;;;;;;10.25;3.90;;;;;;;-149.78;100.00;50514.47;5120491;27;20035;-71
2021/12/16 13:07:39;;;;;;;7.47;3.72;;;;;;;-149.78;100.00;50502.75;5124542;28;20432;-71
2021/12/16 13:10:19;;;;;;;9.68;3.83;;;;;;;-149.78;100.00;50491.00;5112121;28;20038;-72
2021/12/16 13:13:06;;;;;;;8.85;4.18;;;;;;;-149.78;100.00;50494.91;5115762;28;20035;-71
2021/12/16 13:23:41;;;;;;;8.45;3.38;;;;;;;-149.78;100.00;50487.09;5135371;27;20431;-70
2021/12/16 13:29:34;;;;;;;10.60;4.00;;;;;;;-149.78;100.00;50494.91;5130619;27;20129;-70
2021/12/16 13:34:37;;;;;;;7.03;3.42;;;;;;;-149.78;100.00;50492.97;5119758;27;20027;-70
2021/12/16 13:37:31;;;;;;;8.05;3.08;;;;;;;-149.78;100.00;50508.59;5134190;27;20023;-70
2021/12/16 13:40:07;;;;;;;7.97;2.92;;;;;;;-149.78;100.00;50526.22;5125002;27;20035;-70
2021/12/16 13:42:53;;;;;;;4.85;3.15;;;;;;;-149.78;100.00;50498.81;5122624;27;20035;-71
2021/12/16 13:45:49;;;;;;;6.78;2.72;;;;;;;-149.78;100.00;50502.75;5140641;27;20030;-71
2021/12/16 13:48:41;;;;;;;8.80;2.95;;;;;;;-149.78;100.00;50492.97;5119446;27;20028;-71
2021/12/16 14:08:40;;;;;;;5.03;2.25;;;;;;;-149.78;100.00;50532.06;5113269;27;20039;-72
2021/12/16 14:18:03;;;;;;;8.02;2.92;;;;;;;-149.78;100.00;50532.06;5116592;27;20057;-72
2021/12/16 14:23:52;;;;;;;7.22;2.70;;;;;;;-149.78;100.00;50506.66;5130650;27;20034;-71
2021/12/16 14:26:39;;;;;;;6.03;2.95;;;;;;;-149.78;100.00;50518.38;5133916;27;20488;-72
2021/12/16 14:37:27;;;;;;;7.65;2.75;;;;;;;-149.78;100.00;50494.91;5132976;27;20014;-72
2021/12/16 14:42:45;;;;;;;6.30;2.95;;;;;;;-149.78;100.00;50494.91;5117742;27;20466;-72
2021/12/16 14:45:42;;;;;;;6.18;2.63;;;;;;;-149.78;100.00;50530.13;5130092;27;20027;-72